createdAt,value
2023-12-09T00:01:29.764Z,17.37
2023-12-09T00:04:07.523Z,16.47
2023-12-09T00:06:47.441Z,17.57
2023-12-09T00:09:35.154Z,14.60
2023-12-09T00:12:11.124Z,13.47
2023-12-09T00:14:45.969Z,16.57
2023-12-09T00:18:08.833Z,13.53
2023-12-09T00:24:03.339Z,16.57
2023-12-09T00:30:03.903Z,13.20
2023-12-09T00:33:02.418Z,13.17
2023-12-09T00:35:48.944Z,15.77
2023-12-09T00:38:23.722Z,17.70
2023-12-09T00:51:46.687Z,14.73
2023-12-09T00:54:54.012Z,13.90
2023-12-09T00:57:28.962Z,15.67
2023-12-09T01:00:11.375Z,14.87
2023-12-09T01:03:13.113Z,13.67
2023-12-09T01:06:25.969Z,16.30
2023-12-09T01:08:55.516Z,15.13
2023-12-09T01:11:33.203Z,17.47
2023-12-09T01:14:01.927Z,14.03
2023-12-09T01:16:32.220Z,18.57
2023-12-09T01:19:02.036Z,16.13
2023-12-09T01:21:30.875Z,17.43
2023-12-09T01:23:59.414Z,17.50
2023-12-09T01:26:30.672Z,14.47
2023-12-09T01:29:02.381Z,13.07
2023-12-09T01:31:34.946Z,17.30
2023-12-09T01:34:06.067Z,12.47
2023-12-09T01:36:35.117Z,14.77
2023-12-09T01:39:04.710Z,14.30
2023-12-09T01:41:33.482Z,12.67
2023-12-09T01:44:02.411Z,14.30
2023-12-09T01:46:48.386Z,12.90
2023-12-09T01:49:21.270Z,14.63
2023-12-09T01:51:50.172Z,14.00
2023-12-09T01:54:26.960Z,14.10
2023-12-09T01:57:07.465Z,15.57
2023-12-09T01:59:46.922Z,10.80
2023-12-09T02:02:18.724Z,15.13
2023-12-09T02:04:49.764Z,11.87
2023-12-09T02:07:22.355Z,13.73
2023-12-09T02:09:50.939Z,12.60
2023-12-09T02:13:03.344Z,14.57
2023-12-09T02:15:53.671Z,13.80
2023-12-09T02:18:26.221Z,18.70
2023-12-09T02:20:57.980Z,21.53
2023-12-09T02:23:27.024Z,22.13
2023-12-09T02:26:06.953Z,23.10
2023-12-09T02:28:46.952Z,22.73
2023-12-09T02:31:32.942Z,24.30
2023-12-09T02:34:14.087Z,32.10
2023-12-09T02:36:46.766Z,31.87
2023-12-09T02:39:21.301Z,28.53
2023-12-09T02:41:54.474Z,29.23
2023-12-09T02:44:23.506Z,25.73
2023-12-09T02:47:00.328Z,24.47
2023-12-09T02:49:28.809Z,28.93
2023-12-09T02:51:58.642Z,23.73
2023-12-09T02:54:29.484Z,23.63
2023-12-09T02:57:11.177Z,20.67
2023-12-09T02:59:42.369Z,30.03
2023-12-09T03:02:17.765Z,24.93
2023-12-09T03:04:46.552Z,23.20
2023-12-09T03:07:17.723Z,22.87
2023-12-09T03:09:47.091Z,26.17
2023-12-09T03:12:14.849Z,25.43
2023-12-09T03:14:48.807Z,27.87
2023-12-09T03:17:18.147Z,24.27
2023-12-09T03:19:50.622Z,20.90
2023-12-09T03:22:21.485Z,21.77
2023-12-09T03:24:53.869Z,20.30
2023-12-09T03:27:25.053Z,16.23
2023-12-09T03:29:54.864Z,17.77
2023-12-09T03:32:25.789Z,14.77
2023-12-09T03:34:55.709Z,17.23
2023-12-09T03:37:24.418Z,17.90
2023-12-09T03:40:01.408Z,12.97
2023-12-09T03:42:31.326Z,13.87
2023-12-09T03:45:00.389Z,19.17
2023-12-09T03:47:30.770Z,13.63
2023-12-09T03:49:59.258Z,15.77
2023-12-09T03:52:29.581Z,14.67
2023-12-09T03:54:59.345Z,13.43
2023-12-09T03:57:29.769Z,14.90
2023-12-09T03:59:58.268Z,12.03
2023-12-09T04:02:26.934Z,14.00
2023-12-09T04:04:58.641Z,11.00
2023-12-09T04:07:29.677Z,12.77
2023-12-09T04:10:00.582Z,14.90
2023-12-09T04:12:32.349Z,12.33
2023-12-09T04:15:01.932Z,13.43
2023-12-09T04:17:31.630Z,14.03
2023-12-09T04:20:03.201Z,15.33
2023-12-09T04:22:33.999Z,14.13
2023-12-09T04:25:06.725Z,11.70
2023-12-09T04:27:36.309Z,13.63
2023-12-09T04:30:18.243Z,11.83
2023-12-09T04:32:46.743Z,13.60
2023-12-09T04:35:16.040Z,13.07
2023-12-09T04:37:46.486Z,13.07
2023-12-09T04:40:18.796Z,13.70
2023-12-09T04:42:55.515Z,12.67
2023-12-09T04:45:34.260Z,11.53
2023-12-09T04:48:07.415Z,10.37
2023-12-09T04:50:37.675Z,13.97
2023-12-09T04:53:08.943Z,18.80
2023-12-09T04:55:39.090Z,21.60
2023-12-09T04:58:10.888Z,24.70
2023-12-09T05:00:42.389Z,24.30
2023-12-09T05:03:13.651Z,23.20
2023-12-09T05:05:44.841Z,21.17
2023-12-09T05:08:13.666Z,23.50
2023-12-09T05:10:49.748Z,20.27
2023-12-09T05:13:18.763Z,19.03
2023-12-09T05:15:47.321Z,17.33
2023-12-09T05:18:18.796Z,14.27
2023-12-09T05:20:48.811Z,12.30
2023-12-09T05:23:18.364Z,13.03
2023-12-09T05:25:50.941Z,12.20
2023-12-09T05:28:22.018Z,15.00
2023-12-09T05:30:50.149Z,13.43
2023-12-09T05:33:21.135Z,13.93
2023-12-09T05:35:50.376Z,14.93
2023-12-09T05:38:26.100Z,11.23
2023-12-09T05:41:04.467Z,12.67
2023-12-09T05:43:40.646Z,12.50
2023-12-09T05:46:35.673Z,14.70
2023-12-09T05:49:04.908Z,11.00
2023-12-09T05:51:33.663Z,16.23
2023-12-09T05:54:05.763Z,15.77
2023-12-09T05:56:35.706Z,13.20
2023-12-09T05:59:13.330Z,14.53
2023-12-09T06:01:42.793Z,15.43
2023-12-09T06:04:18.859Z,19.30
2023-12-09T06:06:47.294Z,14.93
2023-12-09T06:09:16.247Z,18.27
2023-12-09T06:11:45.174Z,14.90
2023-12-09T06:14:13.878Z,14.60
2023-12-09T06:16:46.743Z,12.87
2023-12-09T06:19:22.884Z,13.57
2023-12-09T06:21:53.836Z,18.30
2023-12-09T06:24:22.249Z,16.57
2023-12-09T06:26:52.241Z,15.73
2023-12-09T06:29:20.932Z,13.83
2023-12-09T06:34:38.566Z,14.43
2023-12-09T06:37:08.669Z,13.27
2023-12-09T06:39:39.169Z,14.83
2023-12-09T06:42:17.766Z,15.23
2023-12-09T06:44:56.544Z,14.47
2023-12-09T06:47:26.881Z,18.00
2023-12-09T06:50:04.531Z,16.03
2023-12-09T06:52:36.763Z,14.00
2023-12-09T06:55:08.526Z,18.43
2023-12-09T06:57:37.238Z,18.23
2023-12-09T07:00:15.420Z,17.13
2023-12-09T07:02:56.191Z,17.40
2023-12-09T07:05:37.563Z,21.67
2023-12-09T07:08:13.687Z,13.83
2023-12-09T07:10:52.164Z,17.63
2023-12-09T07:13:22.020Z,16.43
2023-12-09T07:15:59.341Z,18.53
2023-12-09T07:18:27.930Z,17.77
2023-12-09T07:20:57.580Z,14.27
2023-12-09T07:23:30.825Z,17.00
2023-12-09T07:26:07.405Z,16.97
2023-12-09T07:28:36.921Z,16.00
2023-12-09T07:31:06.949Z,18.90
2023-12-09T07:33:44.510Z,17.23
2023-12-09T07:36:14.442Z,14.70
2023-12-09T07:38:48.068Z,16.37
2023-12-09T07:41:17.331Z,14.97
2023-12-09T07:43:47.925Z,15.87
2023-12-09T07:46:16.281Z,16.10
2023-12-09T07:48:45.249Z,18.93
2023-12-09T07:51:16.443Z,18.47
2023-12-09T07:53:47.017Z,21.93
2023-12-09T07:56:18.241Z,17.47
2023-12-09T07:58:46.898Z,17.03
2023-12-09T08:01:16.241Z,16.83
2023-12-09T08:03:47.292Z,19.57
2023-12-09T08:06:18.902Z,18.07
2023-12-09T08:08:56.727Z,15.63
2023-12-09T08:11:25.714Z,19.43
2023-12-09T08:13:56.140Z,18.63
2023-12-09T08:16:24.848Z,19.43
2023-12-09T08:18:56.438Z,18.47
2023-12-09T08:21:26.935Z,19.73
2023-12-09T08:24:03.652Z,18.20
2023-12-09T08:26:33.782Z,18.70
2023-12-09T08:29:08.610Z,20.97
2023-12-09T08:31:37.602Z,19.83
2023-12-09T08:34:09.121Z,20.80
2023-12-09T08:36:44.998Z,20.60
2023-12-09T08:39:17.700Z,22.43
2023-12-09T08:41:48.541Z,20.27
2023-12-09T08:44:19.162Z,21.20
2023-12-09T08:46:48.487Z,21.43
2023-12-09T08:49:17.148Z,22.83
2023-12-09T08:51:52.410Z,22.20
2023-12-09T08:54:26.555Z,24.17
2023-12-09T08:56:58.862Z,25.70
2023-12-09T08:59:36.468Z,19.00
2023-12-09T09:02:07.091Z,23.03
2023-12-09T09:04:43.179Z,29.60
2023-12-09T09:07:21.697Z,24.00
2023-12-09T09:09:50.548Z,26.70
2023-12-09T09:12:21.652Z,33.87
2023-12-09T09:14:50.993Z,31.87
2023-12-09T09:20:02.893Z,29.20
2023-12-09T09:22:37.233Z,30.20
2023-12-09T09:25:14.369Z,30.27
2023-12-09T09:27:42.618Z,31.43
2023-12-09T09:30:12.084Z,31.00
2023-12-09T09:32:42.567Z,27.87
2023-12-09T09:35:14.060Z,29.93
2023-12-09T09:37:44.658Z,30.33
2023-12-09T09:40:15.712Z,32.53
2023-12-09T09:43:23.368Z,33.37
2023-12-09T09:45:58.656Z,26.70
2023-12-09T09:48:31.924Z,28.70
2023-12-09T09:51:09.149Z,34.97
2023-12-09T09:54:20.232Z,29.17
2023-12-09T09:56:51.824Z,28.50
2023-12-09T09:59:19.988Z,31.13
2023-12-09T10:01:57.619Z,26.80
2023-12-09T10:04:26.090Z,30.30
2023-12-09T10:06:57.974Z,27.33
2023-12-09T10:09:25.204Z,21.93
2023-12-09T10:11:52.779Z,27.67
2023-12-09T10:14:26.837Z,29.80
2023-12-09T10:17:00.786Z,27.17
2023-12-09T10:19:39.364Z,24.73
2023-12-09T10:22:09.397Z,31.17
2023-12-09T10:24:49.921Z,31.03
2023-12-09T10:27:34.795Z,26.47
2023-12-09T10:30:05.839Z,26.40
2023-12-09T10:32:35.216Z,25.47
2023-12-09T10:35:07.695Z,26.77
2023-12-09T10:37:39.230Z,26.87
2023-12-09T10:40:09.418Z,25.73
2023-12-09T10:42:41.261Z,29.60
2023-12-09T10:45:22.012Z,26.93
2023-12-09T10:47:53.707Z,26.40
2023-12-09T10:50:21.481Z,28.50
2023-12-09T10:52:50.427Z,26.23
2023-12-09T10:55:20.458Z,27.00
2023-12-09T10:57:55.531Z,25.53
2023-12-09T11:00:35.813Z,25.73
2023-12-09T11:03:11.202Z,26.63
2023-12-09T11:05:54.057Z,26.77
2023-12-09T11:08:29.651Z,25.13
2023-12-09T11:10:59.846Z,21.27
2023-12-09T11:13:33.868Z,24.23
2023-12-09T11:16:22.993Z,22.03
2023-12-09T11:18:59.781Z,25.00
2023-12-09T11:21:31.606Z,26.93
2023-12-09T11:24:01.110Z,22.43
2023-12-09T11:26:35.869Z,23.20
2023-12-09T11:29:16.284Z,24.40
2023-12-09T11:31:51.897Z,21.70
2023-12-09T11:34:28.074Z,24.47
2023-12-09T11:37:05.693Z,26.80
2023-12-09T11:39:36.232Z,22.17
2023-12-09T11:42:07.940Z,25.73
2023-12-09T11:44:39.331Z,25.73
2023-12-09T11:47:17.015Z,22.50
2023-12-09T11:49:53.125Z,24.37
2023-12-09T11:52:25.129Z,21.00
2023-12-09T11:55:11.489Z,20.77
2023-12-09T11:57:41.431Z,23.77
2023-12-09T12:00:18.178Z,20.83
2023-12-09T12:02:58.008Z,20.03
2023-12-09T12:05:28.287Z,18.80
2023-12-09T12:07:57.869Z,19.00
2023-12-09T12:10:29.489Z,17.80
2023-12-09T12:12:58.657Z,22.03
2023-12-09T12:15:29.388Z,16.53
2023-12-09T12:18:10.280Z,18.93
2023-12-09T12:20:48.272Z,16.87
2023-12-09T12:23:26.444Z,17.10
2023-12-09T12:26:06.249Z,19.67
2023-12-09T12:28:36.680Z,17.63
2023-12-09T12:31:11.265Z,18.77
2023-12-09T12:33:41.851Z,17.57
2023-12-09T12:36:16.770Z,15.43
2023-12-09T12:38:55.300Z,17.20
2023-12-09T12:41:22.937Z,19.17
2023-12-09T12:43:51.666Z,22.80
2023-12-09T12:46:21.727Z,21.97
2023-12-09T12:48:52.441Z,24.23
2023-12-09T12:51:29.675Z,26.40
2023-12-09T12:53:57.589Z,23.37
2023-12-09T12:56:28.722Z,23.70
2023-12-09T12:58:57.212Z,24.60
2023-12-09T13:01:30.640Z,22.33
2023-12-09T13:04:00.899Z,24.60
2023-12-09T13:06:30.259Z,26.67
2023-12-09T13:08:58.505Z,22.77
2023-12-09T13:11:29.872Z,24.63
2023-12-09T13:14:05.891Z,24.67
2023-12-09T13:16:41.780Z,24.00
2023-12-09T13:19:13.659Z,23.00
2023-12-09T13:21:44.458Z,25.03
2023-12-09T13:24:16.019Z,20.60
2023-12-09T13:26:46.284Z,23.70
2023-12-09T13:29:15.301Z,25.67
2023-12-09T13:31:44.320Z,19.00
2023-12-09T13:34:14.426Z,21.60
2023-12-09T13:36:45.500Z,24.03
2023-12-09T13:39:16.831Z,30.53
2023-12-09T13:41:45.715Z,27.07
2023-12-09T13:44:15.900Z,29.80
2023-12-09T13:46:50.321Z,28.03
2023-12-09T13:49:22.895Z,31.23
2023-12-09T13:52:00.967Z,30.20
2023-12-09T13:54:29.014Z,31.10
2023-12-09T13:57:05.166Z,32.07
2023-12-09T13:59:34.733Z,26.23
2023-12-09T14:02:10.238Z,30.13
2023-12-09T14:04:38.461Z,28.07
2023-12-09T14:07:12.422Z,30.50
2023-12-09T14:09:41.688Z,32.47
2023-12-09T14:12:14.101Z,35.93
2023-12-09T14:14:43.672Z,29.00
2023-12-09T14:17:14.945Z,29.60
2023-12-09T14:19:43.512Z,31.63
2023-12-09T14:22:19.559Z,28.07
2023-12-09T14:24:48.729Z,30.00
2023-12-09T14:27:18.037Z,27.93
2023-12-09T14:29:49.357Z,28.00
2023-12-09T14:32:28.813Z,26.07
2023-12-09T14:35:01.689Z,30.07
2023-12-09T14:40:20.969Z,28.43
2023-12-09T14:42:52.736Z,29.30
2023-12-09T14:45:22.543Z,31.00
2023-12-09T14:47:58.387Z,24.43
2023-12-09T14:50:35.060Z,30.13
2023-12-09T14:53:05.866Z,28.27
2023-12-09T14:55:36.253Z,30.63
2023-12-09T14:58:11.354Z,29.77
2023-12-09T15:00:40.328Z,28.43
2023-12-09T15:03:12.064Z,28.47
2023-12-09T15:05:39.536Z,32.60
2023-12-09T15:08:09.063Z,29.23
2023-12-09T15:10:39.794Z,32.10
2023-12-09T15:13:09.058Z,28.37
2023-12-09T15:15:43.855Z,27.80
2023-12-09T15:18:14.508Z,28.63
2023-12-09T15:20:48.485Z,25.50
2023-12-09T15:23:16.942Z,33.70
2023-12-09T15:25:46.757Z,30.03
2023-12-09T15:28:23.816Z,30.37
2023-12-09T15:30:53.052Z,31.67
2023-12-09T15:33:22.334Z,33.87
2023-12-09T15:35:50.982Z,29.43
2023-12-09T15:38:19.872Z,29.17
2023-12-09T15:40:58.004Z,26.27
2023-12-09T15:43:31.603Z,31.80
2023-12-09T15:46:03.478Z,33.77
2023-12-09T15:48:34.138Z,32.80
2023-12-09T15:51:03.570Z,32.83
2023-12-09T15:53:38.620Z,32.57
2023-12-09T15:56:12.893Z,32.47
2023-12-09T15:58:42.121Z,28.53
2023-12-09T16:01:16.271Z,32.17
2023-12-09T16:03:45.978Z,30.63
2023-12-09T16:06:17.890Z,32.10
2023-12-09T16:08:48.669Z,29.37
2023-12-09T16:11:37.801Z,33.87
2023-12-09T16:14:05.370Z,35.30
2023-12-09T16:16:32.827Z,30.53
2023-12-09T16:19:02.311Z,28.70
2023-12-09T16:21:34.654Z,30.77
2023-12-09T16:24:09.759Z,37.40
2023-12-09T16:26:39.756Z,31.37
2023-12-09T16:29:07.527Z,29.53
2023-12-09T16:31:37.762Z,31.77
2023-12-09T16:34:08.672Z,33.33
2023-12-09T16:36:37.784Z,29.10
2023-12-09T16:39:07.714Z,33.87
2023-12-09T16:41:36.740Z,37.50
2023-12-09T16:44:07.762Z,33.23
2023-12-09T16:46:37.245Z,39.07
2023-12-09T16:49:09.417Z,37.67
2023-12-09T16:51:41.043Z,34.37
2023-12-09T16:54:10.024Z,34.87
2023-12-09T16:56:48.335Z,36.37
2023-12-09T16:59:21.078Z,43.50
2023-12-09T17:01:48.492Z,41.97
2023-12-09T17:04:17.666Z,41.73
2023-12-09T17:06:46.089Z,41.27
2023-12-09T17:09:17.427Z,41.97
2023-12-09T17:11:46.446Z,43.30
2023-12-09T17:14:21.491Z,41.73
2023-12-09T17:16:51.191Z,42.43
2023-12-09T17:19:22.012Z,39.97
2023-12-09T17:21:59.463Z,45.17
2023-12-09T17:24:31.920Z,37.80
2023-12-09T17:27:03.217Z,41.00
2023-12-09T17:29:39.508Z,43.60
2023-12-09T17:32:12.800Z,44.53
2023-12-09T17:34:42.059Z,42.03
2023-12-09T17:37:14.373Z,48.53
2023-12-09T17:39:48.155Z,46.80
2023-12-09T17:42:17.841Z,52.63
2023-12-09T17:44:46.480Z,53.07
2023-12-09T17:47:16.242Z,46.20
2023-12-09T17:49:49.223Z,43.97
2023-12-09T17:52:19.285Z,38.57
2023-12-09T17:54:51.105Z,41.70
2023-12-09T17:57:19.923Z,42.53
2023-12-09T17:59:59.548Z,44.80
2023-12-09T18:02:29.072Z,40.07
2023-12-09T18:04:58.529Z,53.93
2023-12-09T18:07:32.463Z,39.87
2023-12-09T18:10:02.239Z,40.03
2023-12-09T18:12:39.444Z,41.40
2023-12-09T18:17:54.777Z,43.60
2023-12-09T18:20:22.776Z,43.33
2023-12-09T18:23:00.252Z,43.87
2023-12-09T18:25:36.840Z,48.00
2023-12-09T18:28:09.999Z,48.60
2023-12-09T18:30:42.469Z,45.83
2023-12-09T18:33:12.539Z,41.67
2023-12-09T18:35:42.757Z,49.73
2023-12-09T18:38:13.383Z,46.63
2023-12-09T18:40:43.680Z,48.60
2023-12-09T18:43:23.688Z,47.47
2023-12-09T18:45:54.902Z,48.27
2023-12-09T18:48:28.213Z,44.97
2023-12-09T18:51:01.484Z,44.70
2023-12-09T18:53:31.082Z,44.30
2023-12-09T18:58:48.691Z,40.07
2023-12-09T19:01:18.901Z,48.43
2023-12-09T19:03:48.340Z,42.10
2023-12-09T19:06:18.496Z,40.60
2023-12-09T19:08:47.054Z,40.50
2023-12-09T19:11:22.237Z,44.07
2023-12-09T19:13:55.298Z,45.73
2023-12-09T19:16:23.712Z,46.57
2023-12-09T19:18:55.222Z,36.53
2023-12-09T19:21:26.885Z,44.67
2023-12-09T19:23:56.889Z,39.40
2023-12-09T19:26:30.901Z,49.63
2023-12-09T19:29:02.776Z,41.37
2023-12-09T19:31:31.809Z,50.13
2023-12-09T19:34:10.658Z,47.03
2023-12-09T19:36:42.351Z,46.77
2023-12-09T19:39:16.349Z,44.40
2023-12-09T19:41:46.492Z,43.73
2023-12-09T19:44:22.609Z,46.47
2023-12-09T19:46:54.713Z,48.80
2023-12-09T19:49:25.998Z,55.57
2023-12-09T19:51:55.889Z,44.77
2023-12-09T19:54:26.703Z,49.90
2023-12-09T19:56:56.265Z,45.20
2023-12-09T19:59:26.785Z,42.23
2023-12-09T20:01:56.750Z,48.67
2023-12-09T20:04:26.787Z,45.30
2023-12-09T20:06:58.619Z,51.43
2023-12-09T20:09:29.935Z,50.30
2023-12-09T20:12:07.452Z,47.60
2023-12-09T20:14:36.607Z,48.80
2023-12-09T20:17:09.451Z,51.23
2023-12-09T20:19:42.752Z,52.33
2023-12-09T20:22:14.496Z,49.80
2023-12-09T20:24:51.241Z,54.93
2023-12-09T20:27:19.996Z,55.47
2023-12-09T20:29:49.695Z,48.47
2023-12-09T20:32:16.970Z,56.00
2023-12-09T20:34:44.280Z,51.97
2023-12-09T20:37:13.679Z,47.30
2023-12-09T20:39:43.596Z,46.70
2023-12-09T20:42:14.034Z,59.77
2023-12-09T20:44:43.896Z,45.73
2023-12-09T20:47:14.011Z,48.90
2023-12-09T20:49:44.154Z,45.60
2023-12-09T20:52:12.717Z,50.83
2023-12-09T20:54:47.129Z,52.13
2023-12-09T20:57:20.473Z,49.20
2023-12-09T20:59:50.484Z,54.70
2023-12-09T21:02:27.265Z,49.57
2023-12-09T21:04:59.592Z,54.30
2023-12-09T21:07:35.825Z,49.17
2023-12-09T21:10:06.102Z,52.53
2023-12-09T21:12:37.730Z,45.97
2023-12-09T21:15:15.411Z,54.33
2023-12-09T21:17:51.523Z,57.97
2023-12-09T21:20:28.909Z,43.70
2023-12-09T21:22:59.619Z,48.43
2023-12-09T21:25:28.305Z,51.70
2023-12-09T21:27:57.553Z,56.67
2023-12-09T21:30:28.123Z,48.07
2023-12-09T21:33:00.366Z,55.77
2023-12-09T21:35:30.175Z,60.77
2023-12-09T21:37:58.846Z,53.60
2023-12-09T21:40:27.522Z,49.03
2023-12-09T21:43:04.131Z,46.27
2023-12-09T21:45:34.005Z,58.97
2023-12-09T21:48:11.896Z,55.13
2023-12-09T21:50:40.975Z,53.70
2023-12-09T21:53:15.991Z,55.73
2023-12-09T21:55:45.190Z,57.40
2023-12-09T21:58:22.232Z,49.07
2023-12-09T22:00:53.399Z,64.27
2023-12-09T22:03:25.388Z,54.60
2023-12-09T22:06:01.860Z,55.37
2023-12-09T22:11:17.004Z,49.37
2023-12-09T22:13:48.882Z,56.73
2023-12-09T22:16:24.142Z,51.77
2023-12-09T22:21:45.037Z,52.87
2023-12-09T22:27:07.964Z,58.50
2023-12-09T22:29:38.380Z,40.30
2023-12-09T22:32:08.125Z,44.07
2023-12-09T22:34:37.011Z,48.57
2023-12-09T22:37:11.130Z,44.33
2023-12-09T22:39:41.411Z,47.83
2023-12-09T22:42:14.095Z,55.07
2023-12-09T22:44:47.730Z,45.97
2023-12-09T22:47:25.004Z,48.70
2023-12-09T22:49:55.434Z,49.33
2023-12-09T22:52:25.879Z,49.20
2023-12-09T22:54:59.598Z,42.23
2023-12-09T22:57:28.357Z,49.57
2023-12-09T22:59:58.925Z,52.47
2023-12-09T23:02:34.815Z,43.27
2023-12-09T23:05:05.157Z,49.90
2023-12-09T23:07:35.447Z,57.33
2023-12-09T23:10:07.607Z,52.53
2023-12-09T23:12:43.508Z,56.50
2023-12-09T23:15:16.618Z,68.80
2023-12-09T23:17:47.239Z,54.53
2023-12-09T23:20:16.906Z,44.37
2023-12-09T23:22:50.408Z,47.37
2023-12-09T23:25:20.920Z,55.03
2023-12-09T23:27:54.510Z,43.00
2023-12-09T23:30:31.157Z,43.97
2023-12-09T23:33:00.272Z,42.77
2023-12-09T23:35:31.838Z,48.63
2023-12-09T23:38:04.090Z,52.57
2023-12-09T23:40:33.703Z,42.30
2023-12-09T23:43:08.339Z,48.47
2023-12-09T23:45:38.739Z,49.53
2023-12-09T23:48:15.742Z,45.90
2023-12-09T23:50:51.522Z,48.47
2023-12-09T23:53:22.117Z,41.30
2023-12-09T23:55:52.847Z,46.17
2023-12-09T23:58:21.667Z,43.53
